createdAt,value
2023-05-06T00:01:01.735Z,12.86
2023-05-06T00:03:28.751Z,12.91
2023-05-06T00:05:56.603Z,12.91
2023-05-06T00:08:23.297Z,12.87
2023-05-06T00:10:49.957Z,12.85
2023-05-06T00:13:27.530Z,12.83
2023-05-06T00:15:54.122Z,12.83
2023-05-06T00:18:20.699Z,12.81
2023-05-06T00:20:47.209Z,12.88
2023-05-06T00:23:13.754Z,12.83
2023-05-06T00:25:42.440Z,12.77
2023-05-06T00:28:12.305Z,12.82
2023-05-06T00:30:42.917Z,12.77
2023-05-06T00:33:09.474Z,12.78
2023-05-06T00:35:37.858Z,12.80
2023-05-06T00:38:09.164Z,12.77
2023-05-06T00:40:35.699Z,12.75
2023-05-06T00:43:02.330Z,12.76
2023-05-06T00:45:29.071Z,12.74
2023-05-06T00:47:57.459Z,12.72
2023-05-06T00:50:28.586Z,12.71
2023-05-06T00:52:58.088Z,12.74
2023-05-06T00:55:24.866Z,12.72
2023-05-06T00:57:51.902Z,12.75
2023-05-06T01:00:19.815Z,12.71
2023-05-06T01:02:47.832Z,12.71
2023-05-06T01:05:18.859Z,12.75
2023-05-06T01:07:52.442Z,12.74
2023-05-06T01:10:26.693Z,12.71
2023-05-06T01:13:01.884Z,12.66
2023-05-06T01:15:33.329Z,12.61
2023-05-06T01:18:04.245Z,12.63
2023-05-06T01:20:33.618Z,12.66
2023-05-06T01:23:01.781Z,12.62
2023-05-06T01:25:30.427Z,12.62
2023-05-06T01:27:56.888Z,12.58
2023-05-06T01:30:29.979Z,12.56
2023-05-06T01:33:03.991Z,12.53
2023-05-06T01:35:40.029Z,12.51
2023-05-06T01:38:27.611Z,12.52
2023-05-06T01:40:56.957Z,12.49
2023-05-06T01:43:26.384Z,12.40
2023-05-06T01:45:54.735Z,12.42
2023-05-06T01:48:24.568Z,12.41
2023-05-06T01:50:51.057Z,12.41
2023-05-06T01:53:17.698Z,12.36
2023-05-06T01:55:44.220Z,12.36
2023-05-06T01:58:12.090Z,12.36
2023-05-06T02:00:40.668Z,12.32
2023-05-06T02:03:07.279Z,12.34
2023-05-06T02:05:33.757Z,12.35
2023-05-06T02:08:00.528Z,12.31
2023-05-06T02:10:27.429Z,12.32
2023-05-06T02:13:01.552Z,12.29
2023-05-06T02:15:29.523Z,12.33
2023-05-06T02:17:56.548Z,12.31
2023-05-06T02:20:23.303Z,12.31
2023-05-06T02:22:50.276Z,12.31
2023-05-06T02:25:16.765Z,12.32
2023-05-06T02:27:45.125Z,12.32
2023-05-06T02:30:12.217Z,12.29
2023-05-06T02:32:40.012Z,12.31
2023-05-06T02:35:07.893Z,12.34
2023-05-06T02:37:34.549Z,12.27
2023-05-06T02:40:01.449Z,12.27
2023-05-06T02:42:27.918Z,12.30
2023-05-06T02:44:54.332Z,12.20
2023-05-06T02:47:20.778Z,12.16
2023-05-06T02:49:48.575Z,12.20
2023-05-06T02:52:15.099Z,12.10
2023-05-06T02:54:41.617Z,12.11
2023-05-06T02:57:08.086Z,12.07
2023-05-06T02:59:34.999Z,12.08
2023-05-06T03:02:01.545Z,12.09
2023-05-06T03:04:28.118Z,12.03
2023-05-06T03:06:56.143Z,12.04
2023-05-06T03:09:22.708Z,12.06
2023-05-06T03:11:49.390Z,12.02
2023-05-06T03:14:16.541Z,12.01
2023-05-06T03:16:43.063Z,12.02
2023-05-06T03:19:09.720Z,12.00
2023-05-06T03:21:36.372Z,11.98
2023-05-06T03:24:05.292Z,11.94
2023-05-06T03:26:31.874Z,11.85
2023-05-06T03:28:59.198Z,11.88
2023-05-06T03:31:25.979Z,11.88
2023-05-06T03:33:53.664Z,11.83
2023-05-06T03:36:20.506Z,11.80
2023-05-06T03:38:48.169Z,11.77
2023-05-06T03:41:16.050Z,11.80
2023-05-06T03:43:42.537Z,11.75
2023-05-06T03:46:09.901Z,11.73
2023-05-06T03:48:37.047Z,11.75
2023-05-06T03:51:06.815Z,11.68
2023-05-06T03:53:33.346Z,11.65
2023-05-06T03:55:59.866Z,11.61
2023-05-06T03:58:27.926Z,11.57
2023-05-06T04:00:57.807Z,11.56
2023-05-06T04:03:24.438Z,11.58
2023-05-06T04:05:53.953Z,11.54
2023-05-06T04:08:24.873Z,11.59
2023-05-06T04:10:53.171Z,11.59
2023-05-06T04:13:28.806Z,11.55
2023-05-06T04:15:57.995Z,11.58
2023-05-06T04:18:30.227Z,11.55
2023-05-06T04:21:01.550Z,11.51
2023-05-06T04:23:30.334Z,11.54
2023-05-06T04:25:58.098Z,11.58
2023-05-06T04:28:25.314Z,11.59
2023-05-06T04:30:54.282Z,11.59
2023-05-06T04:33:24.503Z,11.65
2023-05-06T04:35:53.114Z,11.65
2023-05-06T04:38:20.331Z,11.64
2023-05-06T04:40:46.946Z,11.69
2023-05-06T04:43:13.678Z,11.73
2023-05-06T04:45:46.609Z,11.75
2023-05-06T04:48:22.180Z,11.79
2023-05-06T04:50:50.752Z,11.83
2023-05-06T04:53:18.032Z,11.96
2023-05-06T04:55:44.750Z,12.00
2023-05-06T04:58:11.565Z,12.06
2023-05-06T05:00:41.772Z,12.05
2023-05-06T05:03:15.493Z,12.06
2023-05-06T05:05:43.823Z,12.11
2023-05-06T05:08:21.279Z,12.11
2023-05-06T05:10:48.072Z,12.16
2023-05-06T05:13:19.501Z,12.18
2023-05-06T05:15:46.070Z,12.22
2023-05-06T05:18:14.664Z,12.28
2023-05-06T05:20:41.881Z,12.35
2023-05-06T05:23:12.414Z,12.53
2023-05-06T05:25:38.895Z,12.73
2023-05-06T05:28:05.647Z,12.98
2023-05-06T05:30:33.371Z,13.21
2023-05-06T05:33:00.099Z,13.84
2023-05-06T05:35:26.947Z,14.29
2023-05-06T05:37:54.810Z,14.49
2023-05-06T05:40:23.265Z,14.44
2023-05-06T05:42:52.218Z,14.76
2023-05-06T05:45:27.651Z,14.79
2023-05-06T05:47:54.907Z,14.69
2023-05-06T05:50:22.612Z,14.15
2023-05-06T05:52:50.007Z,14.02
2023-05-06T05:55:17.942Z,13.85
2023-05-06T05:57:47.736Z,13.92
2023-05-06T06:00:15.684Z,13.80
2023-05-06T06:02:45.073Z,13.74
2023-05-06T06:05:14.245Z,13.72
2023-05-06T06:07:40.819Z,13.67
2023-05-06T06:10:08.496Z,13.81
2023-05-06T06:12:35.045Z,13.86
2023-05-06T06:15:04.401Z,13.96
2023-05-06T06:17:31.778Z,14.10
2023-05-06T06:19:59.036Z,14.34
2023-05-06T06:22:25.505Z,14.30
2023-05-06T06:24:53.667Z,14.43
2023-05-06T06:27:20.185Z,14.22
2023-05-06T06:29:47.494Z,14.21
2023-05-06T06:32:15.431Z,14.09
2023-05-06T06:34:41.966Z,13.97
2023-05-06T06:37:09.933Z,13.92
2023-05-06T06:39:36.424Z,13.82
2023-05-06T06:42:02.982Z,13.68
2023-05-06T06:44:35.709Z,13.85
2023-05-06T06:47:02.208Z,13.82
2023-05-06T06:49:30.202Z,13.88
2023-05-06T06:51:56.627Z,13.83
2023-05-06T06:54:23.166Z,13.74
2023-05-06T06:56:49.641Z,13.81
2023-05-06T06:59:16.026Z,13.93
2023-05-06T07:01:42.494Z,13.99
2023-05-06T07:04:09.015Z,13.92
2023-05-06T07:06:36.917Z,13.81
2023-05-06T07:09:03.603Z,13.94
2023-05-06T07:11:30.036Z,13.89
2023-05-06T07:13:56.447Z,13.77
2023-05-06T07:16:22.872Z,13.72
2023-05-06T07:18:49.339Z,13.71
2023-05-06T07:21:15.782Z,13.62
2023-05-06T07:23:43.563Z,13.73
2023-05-06T07:26:09.961Z,13.73
2023-05-06T07:28:36.401Z,13.72
2023-05-06T07:31:02.851Z,13.70
2023-05-06T07:33:29.270Z,13.58
2023-05-06T07:35:55.764Z,13.60
2023-05-06T07:38:22.314Z,13.56
2023-05-06T07:40:50.833Z,13.62
2023-05-06T07:43:17.332Z,13.63
2023-05-06T07:45:43.771Z,13.72
2023-05-06T07:48:10.234Z,13.63
2023-05-06T07:50:36.708Z,13.70
2023-05-06T07:53:03.148Z,13.88
2023-05-06T07:55:29.556Z,14.00
2023-05-06T07:57:57.357Z,14.02
2023-05-06T08:00:23.729Z,14.12
2023-05-06T08:02:50.318Z,14.26
2023-05-06T08:05:16.865Z,14.39
2023-05-06T08:07:43.420Z,14.76
2023-05-06T08:10:10.473Z,14.96
2023-05-06T08:12:37.422Z,15.05
2023-05-06T08:15:06.364Z,15.09
2023-05-06T08:17:32.855Z,14.97
2023-05-06T08:19:59.320Z,15.13
2023-05-06T08:22:25.957Z,15.22
2023-05-06T08:24:52.340Z,15.13
2023-05-06T08:27:18.755Z,15.50
2023-05-06T08:29:45.387Z,15.46
2023-05-06T08:32:13.232Z,15.71
2023-05-06T08:34:39.606Z,16.06
2023-05-06T08:37:06.489Z,16.39
2023-05-06T08:39:32.905Z,16.27
2023-05-06T08:42:01.017Z,16.20
2023-05-06T08:44:27.765Z,16.28
2023-05-06T08:46:54.680Z,16.92
2023-05-06T08:49:22.539Z,17.36
2023-05-06T08:51:51.449Z,16.78
2023-05-06T08:54:18.173Z,16.79
2023-05-06T08:56:48.224Z,17.22
2023-05-06T08:59:15.090Z,17.31
2023-05-06T09:01:41.634Z,17.23
2023-05-06T09:04:08.426Z,17.46
2023-05-06T09:06:36.210Z,17.22
2023-05-06T09:09:02.930Z,16.97
2023-05-06T09:11:30.078Z,16.67
2023-05-06T09:14:11.184Z,16.18
2023-05-06T09:16:38.578Z,16.85
2023-05-06T09:19:05.700Z,17.76
2023-05-06T09:21:33.508Z,18.05
2023-05-06T09:24:02.897Z,18.61
2023-05-06T09:26:30.247Z,19.35
2023-05-06T09:28:57.523Z,19.55
2023-05-06T09:31:24.584Z,19.54
2023-05-06T09:33:51.382Z,18.65
2023-05-06T09:36:18.138Z,18.07
2023-05-06T09:38:44.589Z,18.29
2023-05-06T09:41:12.954Z,18.17
2023-05-06T09:43:42.686Z,17.80
2023-05-06T09:46:09.271Z,18.06
2023-05-06T09:48:36.265Z,17.93
2023-05-06T09:51:03.492Z,17.80
2023-05-06T09:53:31.684Z,17.49
2023-05-06T09:55:58.425Z,17.30
2023-05-06T09:58:27.751Z,17.04
2023-05-06T10:00:55.256Z,16.88
2023-05-06T10:03:22.098Z,16.59
2023-05-06T10:05:49.005Z,16.41
2023-05-06T10:08:18.429Z,16.47
2023-05-06T10:10:45.792Z,16.39
2023-05-06T10:13:13.273Z,16.35
2023-05-06T10:15:42.871Z,16.36
2023-05-06T10:18:09.629Z,16.47
2023-05-06T10:20:40.830Z,16.76
2023-05-06T10:23:13.069Z,17.19
2023-05-06T10:25:40.530Z,17.48
2023-05-06T10:28:16.081Z,17.81
2023-05-06T10:30:52.273Z,17.56
2023-05-06T10:33:22.842Z,17.53
2023-05-06T10:35:56.548Z,17.16
2023-05-06T10:38:28.131Z,16.88
2023-05-06T10:40:55.574Z,16.64
2023-05-06T10:43:23.428Z,16.28
2023-05-06T10:46:02.342Z,16.43
2023-05-06T10:48:29.143Z,16.62
2023-05-06T10:51:21.450Z,16.83
2023-05-06T10:54:03.946Z,17.18
2023-05-06T10:56:32.052Z,17.58
2023-05-06T10:59:04.990Z,17.63
2023-05-06T11:01:32.778Z,18.03
2023-05-06T11:04:04.840Z,18.24
2023-05-06T11:06:35.736Z,18.11
2023-05-06T11:09:03.478Z,17.71
2023-05-06T11:11:49.813Z,17.65
2023-05-06T11:14:25.880Z,17.94
2023-05-06T11:16:54.032Z,18.56
2023-05-06T11:19:22.043Z,18.65
2023-05-06T11:21:50.511Z,19.05
2023-05-06T11:24:23.238Z,19.50
2023-05-06T11:26:50.368Z,20.18
2023-05-06T11:29:17.617Z,20.37
2023-05-06T11:31:44.987Z,20.21
2023-05-06T11:34:18.498Z,20.08
2023-05-06T11:36:46.543Z,19.77
2023-05-06T11:39:13.049Z,19.31
2023-05-06T11:41:40.027Z,18.95
2023-05-06T11:44:07.993Z,18.80
2023-05-06T11:46:35.807Z,19.22
2023-05-06T11:49:02.445Z,19.00
2023-05-06T11:51:30.222Z,18.99
2023-05-06T11:54:05.481Z,19.37
2023-05-06T11:56:43.533Z,19.54
2023-05-06T11:59:09.965Z,19.92
2023-05-06T12:01:36.429Z,19.57
2023-05-06T12:04:03.175Z,19.42
2023-05-06T12:06:35.490Z,19.36
2023-05-06T12:09:04.015Z,19.30
2023-05-06T12:11:30.869Z,19.21
2023-05-06T12:13:57.672Z,19.30
2023-05-06T12:16:24.720Z,19.57
2023-05-06T12:18:52.256Z,19.52
2023-05-06T12:21:22.361Z,19.63
2023-05-06T12:23:54.678Z,20.20
2023-05-06T12:26:21.193Z,20.25
2023-05-06T12:29:03.096Z,19.87
2023-05-06T12:31:29.560Z,18.93
2023-05-06T12:33:57.122Z,19.10
2023-05-06T12:36:24.633Z,19.06
2023-05-06T12:38:53.245Z,18.71
2023-05-06T12:41:19.893Z,19.22
2023-05-06T12:43:46.629Z,19.76
2023-05-06T12:46:15.248Z,19.87
2023-05-06T12:48:55.201Z,19.71
2023-05-06T12:51:21.831Z,19.74
2023-05-06T12:53:48.204Z,20.01
2023-05-06T12:56:15.966Z,19.85
2023-05-06T12:58:42.354Z,19.39
2023-05-06T13:01:09.005Z,19.39
2023-05-06T13:03:38.017Z,18.99
2023-05-06T13:06:07.695Z,19.13
2023-05-06T13:08:34.160Z,19.16
2023-05-06T13:11:00.550Z,18.81
2023-05-06T13:13:28.328Z,18.47
2023-05-06T13:15:54.801Z,18.45
2023-05-06T13:18:21.204Z,18.42
2023-05-06T13:20:47.694Z,18.23
2023-05-06T13:23:14.077Z,18.03
2023-05-06T13:25:55.971Z,17.89
2023-05-06T13:28:28.159Z,18.10
2023-05-06T13:30:54.589Z,18.19
2023-05-06T13:33:21.045Z,18.27
2023-05-06T13:35:47.457Z,18.66
2023-05-06T13:38:13.902Z,18.74
2023-05-06T13:40:40.268Z,18.41
2023-05-06T13:43:06.725Z,18.12
2023-05-06T13:45:34.548Z,17.92
2023-05-06T13:48:01.023Z,18.02
2023-05-06T13:50:27.398Z,18.66
2023-05-06T13:52:53.835Z,19.02
2023-05-06T13:55:20.217Z,18.79
2023-05-06T13:57:46.640Z,18.97
2023-05-06T14:00:16.248Z,19.29
2023-05-06T14:02:43.982Z,19.65
2023-05-06T14:05:10.902Z,19.38
2023-05-06T14:07:40.233Z,19.34
2023-05-06T14:10:08.110Z,19.29
2023-05-06T14:12:34.666Z,18.99
2023-05-06T14:15:01.147Z,18.65
2023-05-06T14:17:27.669Z,18.15
2023-05-06T14:19:55.395Z,18.18
2023-05-06T14:22:21.809Z,18.07
2023-05-06T14:24:48.238Z,18.26
2023-05-06T14:27:14.716Z,18.47
2023-05-06T14:29:41.477Z,18.66
2023-05-06T14:32:07.894Z,18.24
2023-05-06T14:34:34.488Z,18.28
2023-05-06T14:37:02.379Z,18.24
2023-05-06T14:39:28.804Z,18.53
2023-05-06T14:41:55.263Z,18.82
2023-05-06T14:44:21.935Z,18.84
2023-05-06T14:46:49.191Z,18.72
2023-05-06T14:49:15.634Z,18.58
2023-05-06T14:51:42.908Z,18.95
2023-05-06T14:54:10.701Z,18.79
2023-05-06T14:56:37.194Z,18.90
2023-05-06T14:59:04.234Z,18.67
2023-05-06T15:01:30.921Z,18.62
2023-05-06T15:03:57.342Z,18.19
2023-05-06T15:06:23.808Z,18.39
2023-05-06T15:08:50.275Z,18.44
2023-05-06T15:11:18.004Z,18.64
2023-05-06T15:13:44.440Z,18.80
2023-05-06T15:16:11.605Z,18.48
2023-05-06T15:18:38.156Z,18.80
2023-05-06T15:21:04.632Z,18.49
2023-05-06T15:23:31.141Z,18.40
2023-05-06T15:25:57.574Z,18.43
2023-05-06T15:28:25.436Z,18.53
2023-05-06T15:30:51.836Z,18.66
2023-05-06T15:33:18.273Z,18.52
2023-05-06T15:35:44.712Z,18.62
2023-05-06T15:38:11.155Z,18.35
2023-05-06T15:40:38.174Z,18.10
2023-05-06T15:43:04.654Z,17.91
2023-05-06T15:45:33.103Z,17.82
2023-05-06T15:47:59.576Z,17.83
2023-05-06T15:52:58.002Z,17.83
2023-05-06T15:55:25.312Z,17.86
2023-05-06T15:57:52.576Z,17.56
2023-05-06T16:00:37.375Z,17.41
2023-05-06T16:03:06.796Z,17.38
2023-05-06T16:05:34.735Z,17.51
2023-05-06T16:08:01.321Z,17.66
2023-05-06T16:10:27.709Z,17.44
2023-05-06T16:12:54.130Z,17.27
2023-05-06T16:15:20.919Z,17.03
2023-05-06T16:17:47.380Z,16.91
2023-05-06T16:20:15.168Z,16.88
2023-05-06T16:22:41.582Z,16.95
2023-05-06T16:25:08.344Z,16.87
2023-05-06T16:27:34.858Z,16.67
2023-05-06T16:30:01.616Z,16.79
2023-05-06T16:32:28.089Z,16.81
2023-05-06T16:34:54.484Z,16.76
2023-05-06T16:37:22.232Z,16.74
2023-05-06T16:39:49.026Z,16.69
2023-05-06T16:42:15.605Z,16.57
2023-05-06T16:44:41.962Z,16.61
2023-05-06T16:47:08.468Z,16.51
2023-05-06T16:49:35.106Z,16.40
2023-05-06T16:52:01.566Z,16.35
2023-05-06T16:54:29.379Z,16.32
2023-05-06T16:56:55.810Z,16.26
2023-05-06T16:59:22.642Z,16.30
2023-05-06T17:01:49.159Z,16.13
2023-05-06T17:04:15.630Z,16.05
2023-05-06T17:06:42.014Z,15.96
2023-05-06T17:09:08.437Z,15.83
2023-05-06T17:11:36.269Z,15.74
2023-05-06T17:14:02.772Z,15.62
2023-05-06T17:16:29.277Z,15.56
2023-05-06T17:18:55.764Z,15.38
2023-05-06T17:21:22.169Z,15.23
2023-05-06T17:23:48.669Z,15.07
2023-05-06T17:26:15.133Z,14.81
2023-05-06T17:28:42.991Z,14.65
2023-05-06T17:31:09.461Z,14.51
2023-05-06T17:33:35.976Z,14.38
2023-05-06T17:36:02.449Z,14.24
2023-05-06T17:38:28.864Z,14.16
2023-05-06T17:40:55.317Z,14.00
2023-05-06T17:43:21.768Z,13.78
2023-05-06T17:45:49.511Z,13.68
2023-05-06T17:48:16.004Z,13.62
2023-05-06T17:50:42.474Z,13.44
2023-05-06T17:53:08.982Z,13.48
2023-05-06T17:55:35.567Z,13.41
2023-05-06T17:58:02.010Z,13.33
2023-05-06T18:00:28.492Z,13.15
2023-05-06T18:02:56.376Z,13.11
2023-05-06T18:05:23.241Z,13.00
2023-05-06T18:07:49.712Z,12.93
2023-05-06T18:10:16.558Z,12.93
2023-05-06T18:12:43.075Z,12.83
2023-05-06T18:15:10.478Z,12.69
2023-05-06T18:17:37.331Z,12.59
2023-05-06T18:20:06.398Z,12.51
2023-05-06T18:22:32.906Z,12.39
2023-05-06T18:24:59.373Z,12.31
2023-05-06T18:27:26.081Z,12.25
2023-05-06T18:29:52.569Z,12.23
2023-05-06T18:32:19.049Z,12.11
2023-05-06T18:34:45.437Z,12.11
2023-05-06T18:37:13.233Z,12.10
2023-05-06T18:39:40.053Z,12.09
2023-05-06T18:42:06.527Z,12.06
2023-05-06T18:44:33.087Z,11.96
2023-05-06T18:46:59.509Z,11.94
2023-05-06T18:49:25.970Z,11.85
2023-05-06T18:51:52.549Z,11.80
2023-05-06T18:54:20.340Z,11.73
2023-05-06T18:56:46.851Z,11.64
2023-05-06T18:59:13.370Z,11.67
2023-05-06T19:01:40.063Z,11.56
2023-05-06T19:04:06.549Z,11.49
2023-05-06T19:06:33.071Z,11.39
2023-05-06T19:08:59.594Z,11.27
2023-05-06T19:11:27.385Z,11.23
2023-05-06T19:13:53.792Z,11.20
2023-05-06T19:16:20.289Z,11.14
2023-05-06T19:18:46.776Z,11.10
2023-05-06T19:21:13.515Z,11.12
2023-05-06T19:23:40.038Z,11.06
2023-05-06T19:26:07.050Z,11.04
2023-05-06T19:28:34.909Z,10.99
2023-05-06T19:31:01.749Z,10.93
2023-05-06T19:33:28.379Z,10.89
2023-05-06T19:35:54.857Z,10.84
2023-05-06T19:38:21.365Z,10.74
2023-05-06T19:40:47.801Z,10.74
2023-05-06T19:43:14.293Z,10.77
2023-05-06T19:45:42.221Z,10.85
2023-05-06T19:48:09.130Z,10.70
2023-05-06T19:50:35.934Z,10.67
2023-05-06T19:53:03.004Z,10.70
2023-05-06T19:55:29.579Z,10.67
2023-05-06T19:57:56.538Z,10.67
2023-05-06T20:00:23.576Z,10.70
2023-05-06T20:02:51.490Z,10.73
2023-05-06T20:05:18.454Z,10.77
2023-05-06T20:07:44.926Z,10.79
2023-05-06T20:10:11.532Z,10.84
2023-05-06T20:12:38.047Z,10.86
2023-05-06T20:15:05.799Z,10.79
2023-05-06T20:17:32.923Z,10.74
2023-05-06T20:20:02.683Z,10.75
2023-05-06T20:22:30.742Z,10.66
2023-05-06T20:25:07.926Z,10.67
2023-05-06T20:27:34.544Z,10.65
2023-05-06T20:30:01.295Z,10.58
2023-05-06T20:32:28.197Z,10.63
2023-05-06T20:34:55.061Z,10.66
2023-05-06T20:37:23.698Z,10.59
2023-05-06T20:39:50.352Z,10.55
2023-05-06T20:42:16.791Z,10.61
2023-05-06T20:44:43.319Z,10.63
2023-05-06T20:47:09.776Z,10.64
2023-05-06T20:49:36.256Z,10.63
2023-05-06T20:52:02.807Z,10.59
2023-05-06T20:54:30.612Z,10.65
2023-05-06T20:56:57.070Z,10.68
2023-05-06T20:59:23.565Z,10.73
2023-05-06T21:01:50.129Z,10.68
2023-05-06T21:04:17.739Z,10.72
2023-05-06T21:06:44.436Z,10.73
2023-05-06T21:09:11.556Z,10.70
2023-05-06T21:11:42.114Z,10.63
2023-05-06T21:14:08.677Z,10.54
2023-05-06T21:16:35.219Z,10.46
2023-05-06T21:19:01.805Z,10.48
2023-05-06T21:21:30.070Z,10.50
2023-05-06T21:23:56.601Z,10.52
2023-05-06T21:26:23.089Z,10.57
2023-05-06T21:28:51.065Z,10.63
2023-05-06T21:31:19.275Z,10.59
2023-05-06T21:33:45.842Z,10.57
2023-05-06T21:36:12.406Z,10.56
2023-05-06T21:38:39.044Z,10.61
2023-05-06T21:41:05.661Z,10.65
2023-05-06T21:43:33.371Z,10.69
2023-05-06T21:46:02.434Z,10.69
2023-05-06T21:48:28.902Z,10.69
2023-05-06T21:50:55.484Z,10.70
2023-05-06T21:53:21.998Z,10.67
2023-05-06T21:55:48.542Z,10.68
2023-05-06T21:58:14.985Z,10.64
2023-05-06T22:00:43.784Z,10.53
2023-05-06T22:03:11.608Z,10.54
2023-05-06T22:05:38.305Z,10.52
2023-05-06T22:08:05.178Z,10.57
2023-05-06T22:10:31.781Z,10.52
2023-05-06T22:12:58.670Z,10.50
2023-05-06T22:15:25.303Z,10.50
2023-05-06T22:17:51.802Z,10.45
2023-05-06T22:20:19.857Z,10.54
2023-05-06T22:22:46.272Z,10.48
2023-05-06T22:25:13.041Z,10.52
2023-05-06T22:27:39.744Z,10.54
2023-05-06T22:30:07.458Z,10.61
2023-05-06T22:32:33.935Z,10.62
2023-05-06T22:35:00.455Z,10.60
2023-05-06T22:37:28.364Z,10.61
2023-05-06T22:39:55.671Z,10.62
2023-05-06T22:42:22.177Z,10.64
2023-05-06T22:44:48.581Z,10.59
2023-05-06T22:47:14.993Z,10.62
2023-05-06T22:49:41.434Z,10.60
2023-05-06T22:52:10.839Z,10.59
2023-05-06T22:54:41.200Z,10.61
2023-05-06T22:57:09.719Z,10.57
2023-05-06T22:59:36.205Z,10.60
2023-05-06T23:02:02.821Z,10.55
2023-05-06T23:04:29.399Z,10.46
2023-05-06T23:06:55.902Z,10.43
2023-05-06T23:09:22.339Z,10.41
2023-05-06T23:11:50.154Z,10.37
2023-05-06T23:14:16.804Z,10.33
2023-05-06T23:16:43.297Z,10.28
2023-05-06T23:19:09.758Z,10.20
2023-05-06T23:21:36.165Z,10.20
2023-05-06T23:24:02.557Z,10.19
2023-05-06T23:26:28.949Z,10.18
2023-05-06T23:28:56.693Z,10.12
2023-05-06T23:31:23.188Z,10.05
2023-05-06T23:33:49.648Z,10.08
2023-05-06T23:36:16.336Z,10.07
2023-05-06T23:38:42.763Z,10.10
2023-05-06T23:41:09.181Z,10.02
2023-05-06T23:43:35.548Z,10.08
2023-05-06T23:46:03.433Z,10.12
2023-05-06T23:48:29.831Z,10.13
2023-05-06T23:50:56.206Z,10.10
2023-05-06T23:53:22.609Z,10.08
2023-05-06T23:55:49.426Z,10.07
2023-05-06T23:58:15.837Z,10.10
